Superior, Nebraska
Current Conditions -  °F | °C
As of 1:55 AM on Friday 19 Dec 2014 (Local Time) from KHJH Reporting Station
Haze Haze  
Wind Chill: 24°   Ceiling: 1700
Heat Index: 30°   Visibility: 5mi
Dew Point: 27°   Wind: 6mph
Humidity: 87%   Direction: 210°SSW
Pressure: 30.22"   Gusts: NA
Location:  40.02°N, 98.07°W
Report Text: KHJH 190755Z AUTO 21005KT 5SM BR OVC017 M01/M03 A3022 RMK AO2 T10111030
Loading
Personal Weather Stations






























Interactive Weather Map New forecast layout! Learn more

10-Day Weather Forecast

Advertisements
Track Severe Weather on mobile